sensor_id;sensor_type;location;lat;lon;timestamp;pressure;altitude;pressure_sealevel;temperature;humidity
44144;BME280;43510;51.920;4.492;2023-02-18T00:00:31;67161.44;;;11.77;100.00
44144;BME280;43510;51.920;4.492;2023-02-18T00:02:58;67165.91;;;11.81;100.00
44144;BME280;43510;51.920;4.492;2023-02-18T00:05:23;67160.88;;;11.77;100.00
44144;BME280;43510;51.920;4.492;2023-02-18T00:07:49;67161.59;;;11.80;100.00
44144;BME280;43510;51.920;4.492;2023-02-18T00:10:14;67159.22;;;11.75;100.00
44144;BME280;43510;51.920;4.492;2023-02-18T00:12:40;67155.84;;;11.72;100.00
44144;BME280;43510;51.920;4.492;2023-02-18T00:15:06;67158.84;;;11.70;100.00
44144;BME280;43510;51.920;4.492;2023-02-18T00:17:33;67146.53;;;11.66;100.00
44144;BME280;43510;51.920;4.492;2023-02-18T00:19:58;67155.63;;;11.77;100.00
44144;BME280;43510;51.920;4.492;2023-02-18T00:22:25;67155.09;;;11.69;100.00
44144;BME280;43510;51.920;4.492;2023-02-18T00:24:51;67156.78;;;11.71;100.00
44144;BME280;43510;51.920;4.492;2023-02-18T00:50:33;67169.59;;;11.90;100.00
44144;BME280;43510;51.920;4.492;2023-02-18T00:52:59;67180.81;;;11.93;100.00
44144;BME280;43510;51.920;4.492;2023-02-18T00:55:24;67176.13;;;11.93;100.00
44144;BME280;43510;51.920;4.492;2023-02-18T00:57:50;67181.94;;;11.94;100.00
44144;BME280;43510;51.920;4.492;2023-02-18T01:00:15;67181.00;;;11.95;100.00
44144;BME280;43510;51.920;4.492;2023-02-18T01:02:41;67171.50;;;11.86;100.00
44144;BME280;43510;51.920;4.492;2023-02-18T01:05:08;67177.09;;;11.92;100.00
44144;BME280;43510;51.920;4.492;2023-02-18T01:07:33;67179.16;;;11.91;100.00
44144;BME280;43510;51.920;4.492;2023-02-18T01:09:59;67171.50;;;11.86;100.00
44144;BME280;43510;51.920;4.492;2023-02-18T01:12:24;67159.75;;;11.76;100.00
44144;BME280;43510;51.920;4.492;2023-02-18T01:14:49;67171.09;;;11.89;100.00
44144;BME280;43510;51.920;4.492;2023-02-18T01:17:15;67167.03;;;11.82;100.00
44144;BME280;43510;51.920;4.492;2023-02-18T01:19:40;67170.22;;;11.83;100.00
44144;BME280;43510;51.920;4.492;2023-02-18T01:22:06;67178.97;;;11.89;100.00
44144;BME280;43510;51.920;4.492;2023-02-18T01:24:32;67163.69;;;11.79;100.00
44144;BME280;43510;51.920;4.492;2023-02-18T01:26:59;67178.19;;;11.93;100.00
44144;BME280;43510;51.920;4.492;2023-02-18T01:29:24;67178.75;;;11.93;100.00
44144;BME280;43510;51.920;4.492;2023-02-18T01:31:50;67180.44;;;11.95;100.00
44144;BME280;43510;51.920;4.492;2023-02-18T01:34:15;67173.72;;;11.89;100.00
44144;BME280;43510;51.920;4.492;2023-02-18T01:36:41;67179.88;;;11.94;100.00
44144;BME280;43510;51.920;4.492;2023-02-18T01:39:07;67167.75;;;11.85;100.00
44144;BME280;43510;51.920;4.492;2023-02-18T01:41:32;67180.25;;;11.92;100.00
44144;BME280;43510;51.920;4.492;2023-02-18T01:44:17;67166.31;;;11.79;100.00
44144;BME280;43510;51.920;4.492;2023-02-18T01:46:43;67146.91;;;11.64;100.00
44144;BME280;43510;51.920;4.492;2023-02-18T01:49:11;67160.88;;;11.77;100.00
44144;BME280;43510;51.920;4.492;2023-02-18T01:51:41;67146.34;;;11.64;100.00
44144;BME280;43510;51.920;4.492;2023-02-18T01:54:23;67169.25;;;11.84;100.00
44144;BME280;43510;51.920;4.492;2023-02-18T01:57:03;67163.69;;;11.79;100.00
44144;BME280;43510;51.920;4.492;2023-02-18T01:59:38;67166.47;;;11.82;100.00
44144;BME280;43510;51.920;4.492;2023-02-18T02:02:06;67165.91;;;11.81;100.00
44144;BME280;43510;51.920;4.492;2023-02-18T02:04:33;67172.78;;;11.90;100.00
44144;BME280;43510;51.920;4.492;2023-02-18T02:06:58;67170.38;;;11.85;100.00
44144;BME280;43510;51.920;4.492;2023-02-18T02:09:26;67178.19;;;11.93;100.00
44144;BME280;43510;51.920;4.492;2023-02-18T02:20:25;67178.19;;;11.93;100.00
44144;BME280;43510;51.920;4.492;2023-02-18T02:47:38;67117.47;;;11.40;100.00
44144;BME280;43510;51.920;4.492;2023-02-18T02:52:57;67106.72;;;11.28;100.00
44144;BME280;43510;51.920;4.492;2023-02-18T02:55:24;67108.94;;;11.30;100.00
44144;BME280;43510;51.920;4.492;2023-02-18T02:57:52;67108.56;;;11.32;100.00
44144;BME280;43510;51.920;4.492;2023-02-18T03:00:30;67121.22;;;11.41;100.00
44144;BME280;43510;51.920;4.492;2023-02-18T03:03:16;67127.94;;;11.47;100.00
44144;BME280;43510;51.920;4.492;2023-02-18T03:11:15;67117.47;;;11.40;100.00
44144;BME280;43510;51.920;4.492;2023-02-18T03:21:52;67118.03;;;11.40;100.00
44144;BME280;43510;51.920;4.492;2023-02-18T03:24:34;67141.56;;;11.55;100.00
44144;BME280;43510;51.920;4.492;2023-02-18T03:27:19;67134.63;;;11.53;100.00
44144;BME280;43510;51.920;4.492;2023-02-18T03:29:51;67132.06;;;11.46;100.00
44144;BME280;43510;51.920;4.492;2023-02-18T03:32:21;67125.13;;;11.44;100.00
44144;BME280;43510;51.920;4.492;2023-02-18T03:34:52;67122.72;;;11.40;100.00
44144;BME280;43510;51.920;4.492;2023-02-18T03:37:20;67130.94;;;11.45;100.00
44144;BME280;43510;51.920;4.492;2023-02-18T03:39:48;67123.47;;;11.43;100.00
44144;BME280;43510;51.920;4.492;2023-02-18T03:42:16;67116.78;;;11.37;100.00
44144;BME280;43510;51.920;4.492;2023-02-18T03:44:43;67121.63;;;11.39;100.00
44144;BME280;43510;51.920;4.492;2023-02-18T03:47:09;67116.78;;;11.37;100.00
44144;BME280;43510;51.920;4.492;2023-02-18T03:49:35;67116.03;;;11.34;100.00
44144;BME280;43510;51.920;4.492;2023-02-18T03:52:01;67117.34;;;11.37;100.00
44144;BME280;43510;51.920;4.492;2023-02-18T03:54:26;67115.66;;;11.36;100.00
44144;BME280;43510;51.920;4.492;2023-02-18T03:56:51;67122.16;;;11.39;100.00
44144;BME280;43510;51.920;4.492;2023-02-18T03:59:17;67119.00;;;11.39;100.00
44144;BME280;43510;51.920;4.492;2023-02-18T04:01:42;67121.22;;;11.41;100.00
44144;BME280;43510;51.920;4.492;2023-02-18T04:04:12;67124.41;;;11.41;100.00
44144;BME280;43510;51.920;4.492;2023-02-18T04:06:37;67121.22;;;11.41;100.00
44144;BME280;43510;51.920;4.492;2023-02-18T04:09:03;67116.78;;;11.37;100.00
44144;BME280;43510;51.920;4.492;2023-02-18T04:11:34;67112.69;;;11.31;100.00
44144;BME280;43510;51.920;4.492;2023-02-18T04:14:00;67111.91;;;11.35;100.00
44144;BME280;43510;51.920;4.492;2023-02-18T04:16:25;67114.53;;;11.35;100.00
44144;BME280;43510;51.920;4.492;2023-02-18T04:18:50;67117.34;;;11.37;100.00
44144;BME280;43510;51.920;4.492;2023-02-18T04:21:16;67115.81;;;11.38;100.00
44144;BME280;43510;51.920;4.492;2023-02-18T04:23:41;67110.41;;;11.36;100.00
44144;BME280;43510;51.920;4.492;2023-02-18T04:26:06;67119.72;;;11.42;100.00
44144;BME280;43510;51.920;4.492;2023-02-18T04:28:32;67120.66;;;11.40;100.00
44144;BME280;43510;51.920;4.492;2023-02-18T04:30:57;67117.88;;;11.38;100.00
44144;BME280;43510;51.920;4.492;2023-02-18T06:50:24;67130.88;;;11.52;100.00
44144;BME280;43510;51.920;4.492;2023-02-18T06:52:50;67129.03;;;11.48;100.00
44144;BME280;43510;51.920;4.492;2023-02-18T06:55:15;67120.66;;;11.40;100.00
44144;BME280;43510;51.920;4.492;2023-02-18T06:57:41;67121.63;;;11.39;100.00
44144;BME280;43510;51.920;4.492;2023-02-18T07:00:07;67118.28;;;11.36;100.00
44144;BME280;43510;51.920;4.492;2023-02-18T07:02:32;67119.00;;;11.39;100.00
44144;BME280;43510;51.920;4.492;2023-02-18T07:04:58;67126.81;;;11.46;100.00
44144;BME280;43510;51.920;4.492;2023-02-18T07:07:24;67134.06;;;11.53;100.00
44144;BME280;43510;51.920;4.492;2023-02-18T07:09:49;67133.50;;;11.52;100.00
44144;BME280;43510;51.920;4.492;2023-02-18T07:12:14;67135.34;;;11.56;100.00
44144;BME280;43510;51.920;4.492;2023-02-18T07:14:40;67135.34;;;11.56;100.00
44144;BME280;43510;51.920;4.492;2023-02-18T07:17:05;67145.78;;;11.63;100.00
44144;BME280;43510;51.920;4.492;2023-02-18T07:19:31;67148.59;;;11.66;100.00
44144;BME280;43510;51.920;4.492;2023-02-18T07:21:57;67154.16;;;11.71;100.00
44144;BME280;43510;51.920;4.492;2023-02-18T07:24:23;67161.44;;;11.77;100.00
44144;BME280;43510;51.920;4.492;2023-02-18T07:26:48;67155.84;;;11.72;100.00
44144;BME280;43510;51.920;4.492;2023-02-18T07:29:14;67160.88;;;11.77;100.00
44144;BME280;43510;51.920;4.492;2023-02-18T07:31:39;67169.81;;;11.85;100.00
44144;BME280;43510;51.920;4.492;2023-02-18T07:34:05;67165.91;;;11.81;100.00
44144;BME280;43510;51.920;4.492;2023-02-18T07:36:31;67169.81;;;11.85;100.00
44144;BME280;43510;51.920;4.492;2023-02-18T07:38:57;67169.25;;;11.84;100.00
44144;BME280;43510;51.920;4.492;2023-02-18T07:41:23;67172.22;;;11.90;100.00
44144;BME280;43510;51.920;4.492;2023-02-18T07:43:49;67181.94;;;11.94;100.00
44144;BME280;43510;51.920;4.492;2023-02-18T07:46:15;67170.94;;;11.86;100.00
44144;BME280;43510;51.920;4.492;2023-02-18T07:48:41;67181.56;;;11.96;100.00
44144;BME280;43510;51.920;4.492;2023-02-18T07:51:08;67193.09;;;12.04;100.00
44144;BME280;43510;51.920;4.492;2023-02-18T07:53:34;67193.66;;;12.04;100.00
44144;BME280;43510;51.920;4.492;2023-02-18T07:56:00;67186.81;;;11.96;100.00
44144;BME280;43510;51.920;4.492;2023-02-18T07:58:31;67179.88;;;11.94;100.00
44144;BME280;43510;51.920;4.492;2023-02-18T08:00:57;67195.34;;;12.06;100.00
44144;BME280;43510;51.920;4.492;2023-02-18T08:03:25;67193.84;;;12.07;100.00
44144;BME280;43510;51.920;4.492;2023-02-18T08:05:51;67199.97;;;12.12;100.00
44144;BME280;43510;51.920;4.492;2023-02-18T08:08:23;67188.81;;;12.02;100.00
44144;BME280;43510;51.920;4.492;2023-02-18T08:10:50;67181.56;;;11.96;100.00
44144;BME280;43510;51.920;4.492;2023-02-18T08:13:15;67194.06;;;12.02;100.00
44144;BME280;43510;51.920;4.492;2023-02-18T08:15:41;67190.69;;;11.99;100.00
44144;BME280;43510;51.920;4.492;2023-02-18T08:18:07;67176.91;;;11.89;100.00
44144;BME280;43510;51.920;4.492;2023-02-18T08:20:38;67183.78;;;11.98;100.00
44144;BME280;43510;51.920;4.492;2023-02-18T08:23:05;67194.53;;;12.10;100.00
44144;BME280;43510;51.920;4.492;2023-02-18T08:25:31;67180.44;;;11.95;100.00
44144;BME280;43510;51.920;4.492;2023-02-18T08:27:57;67175.97;;;11.91;100.00
44144;BME280;43510;51.920;4.492;2023-02-18T08:30:22;67173.72;;;11.89;100.00
44144;BME280;43510;51.920;4.492;2023-02-18T08:32:48;67172.44;;;11.85;100.00
44144;BME280;43510;51.920;4.492;2023-02-18T08:35:13;67173.56;;;11.86;100.00
44144;BME280;43510;51.920;4.492;2023-02-18T08:37:39;67160.72;;;11.74;100.00
44144;BME280;43510;51.920;4.492;2023-02-18T08:40:05;67185.63;;;12.02;100.00
44144;BME280;43510;51.920;4.492;2023-02-18T08:42:30;67196.06;;;12.09;100.00
44144;BME280;43510;51.920;4.492;2023-02-18T08:44:57;67199.41;;;12.12;100.00
44144;BME280;43510;51.920;4.492;2023-02-18T08:47:22;67200.72;;;12.15;100.00
44144;BME280;43510;51.920;4.492;2023-02-18T08:49:48;67202.22;;;12.14;100.00
44144;BME280;43510;51.920;4.492;2023-02-18T08:52:13;67213.75;;;12.22;100.00
44144;BME280;43510;51.920;4.492;2023-02-18T08:54:39;67219.53;;;12.30;100.00
44144;BME280;43510;51.920;4.492;2023-02-18T08:57:04;67221.81;;;12.25;100.00
44144;BME280;43510;51.920;4.492;2023-02-18T08:59:30;67217.84;;;12.28;100.00
44144;BME280;43510;51.920;4.492;2023-02-18T09:01:55;67229.59;;;12.39;100.00
44144;BME280;43510;51.920;4.492;2023-02-18T09:04:20;67227.72;;;12.35;100.00
44144;BME280;43510;51.920;4.492;2023-02-18T09:06:47;67223.59;;;12.36;100.00
44144;BME280;43510;51.920;4.492;2023-02-18T09:09:14;67232.38;;;12.42;100.00
44144;BME280;43510;51.920;4.492;2023-02-18T09:11:39;67245.78;;;12.54;100.00
44144;BME280;43510;51.920;4.492;2023-02-18T09:14:05;67245.22;;;12.53;100.00
44144;BME280;43510;51.920;4.492;2023-02-18T09:16:30;67262.00;;;12.68;100.00
44144;BME280;43510;51.920;4.492;2023-02-18T09:18:56;67266.84;;;12.71;100.00
44144;BME280;43510;51.920;4.492;2023-02-18T09:21:23;67253.38;;;12.65;100.00
44144;BME280;43510;51.920;4.492;2023-02-18T09:23:49;67257.69;;;12.67;100.00
44144;BME280;43510;51.920;4.492;2023-02-18T09:26:17;67245.53;;;12.58;100.00
44144;BME280;43510;51.920;4.492;2023-02-18T09:28:43;67261.66;;;12.63;100.00
44144;BME280;43510;51.920;4.492;2023-02-18T09:31:13;67263.09;;;12.69;100.00
44144;BME280;43510;51.920;4.492;2023-02-18T09:33:42;67255.44;;;12.65;100.00
44144;BME280;43510;51.920;4.492;2023-02-18T09:36:07;67263.09;;;12.69;100.00
44144;BME280;43510;51.920;4.492;2023-02-18T09:38:33;67257.28;;;12.69;100.00
44144;BME280;43510;51.920;4.492;2023-02-18T09:41:00;67264.22;;;12.71;100.00
44144;BME280;43510;51.920;4.492;2023-02-18T09:43:35;67257.13;;;12.66;100.00
44144;BME280;43510;51.920;4.492;2023-02-18T09:46:04;67264.63;;;12.68;100.00
44144;BME280;43510;51.920;4.492;2023-02-18T09:48:35;67265.34;;;12.72;100.00
44144;BME280;43510;51.920;4.492;2023-02-18T09:51:01;67276.34;;;12.79;100.00
44144;BME280;43510;51.920;4.492;2023-02-18T09:53:27;67279.88;;;12.85;100.00
44144;BME280;43510;51.920;4.492;2023-02-18T09:55:55;67280.25;;;12.83;100.00
44144;BME280;43510;51.920;4.492;2023-02-18T09:58:24;67282.66;;;12.87;100.00
44144;BME280;43510;51.920;4.492;2023-02-18T10:01:03;67282.66;;;12.87;100.00
44144;BME280;43510;51.920;4.492;2023-02-18T10:03:29;67284.34;;;12.89;100.00
44144;BME280;43510;51.920;4.492;2023-02-18T10:06:02;67300.38;;;13.01;100.00
44144;BME280;43510;51.920;4.492;2023-02-18T10:08:37;67301.44;;;13.09;100.00
44144;BME280;43510;51.920;4.492;2023-02-18T10:11:04;67308.91;;;13.11;100.00
44144;BME280;43510;51.920;4.492;2023-02-18T10:13:37;67307.25;;;13.09;100.00
44144;BME280;43510;51.920;4.492;2023-02-18T10:16:02;67321.09;;;13.20;100.00
44144;BME280;43510;51.920;4.492;2023-02-18T10:18:35;67327.41;;;13.28;100.00
44144;BME280;43510;51.920;4.492;2023-02-18T10:21:05;67333.56;;;13.33;100.00
44144;BME280;43510;51.920;4.492;2023-02-18T10:23:33;67329.63;;;13.30;100.00
44144;BME280;43510;51.920;4.492;2023-02-18T10:26:09;67326.84;;;13.27;100.00
44144;BME280;43510;51.920;4.492;2023-02-18T10:28:37;67322.91;;;13.24;100.00
44144;BME280;43510;51.920;4.492;2023-02-18T10:31:06;67319.72;;;13.23;100.00
44144;BME280;43510;51.920;4.492;2023-02-18T10:33:34;67333.94;;;13.31;100.00
44144;BME280;43510;51.920;4.492;2023-02-18T10:36:24;67335.78;;;13.35;100.00
44144;BME280;43510;51.920;4.492;2023-02-18T10:53:09;67348.09;;;13.46;100.00
44144;BME280;43510;51.920;4.492;2023-02-18T10:55:41;67341.16;;;13.45;100.00
44144;BME280;43510;51.920;4.492;2023-02-18T10:58:43;67373.66;;;13.67;100.00
44144;BME280;43510;51.920;4.492;2023-02-18T11:01:15;67370.44;;;13.67;100.00
44144;BME280;43510;51.920;4.492;2023-02-18T11:03:44;67376.44;;;13.70;100.00
44144;BME280;43510;51.920;4.492;2023-02-18T11:06:30;67391.31;;;13.88;100.00
44144;BME280;43510;51.920;4.492;2023-02-18T11:08:57;67391.72;;;13.86;100.00
44144;BME280;43510;51.920;4.492;2023-02-18T11:11:29;67406.25;;;13.99;100.00
44144;BME280;43510;51.920;4.492;2023-02-18T11:14:00;67409.22;;;14.04;100.00
44144;BME280;43510;51.920;4.492;2023-02-18T11:16:40;67429.03;;;14.17;100.00
44144;BME280;43510;51.920;4.492;2023-02-18T11:19:32;67423.03;;;14.14;100.00
44144;BME280;43510;51.920;4.492;2023-02-18T11:22:24;67425.28;;;14.16;100.00
44144;BME280;43510;51.920;4.492;2023-02-18T11:24:55;67431.56;;;14.24;100.00
44144;BME280;43510;51.920;4.492;2023-02-18T11:27:53;67432.56;;;14.23;100.00
44144;BME280;43510;51.920;4.492;2023-02-18T11:30:20;67445.97;;;14.35;100.00
44144;BME280;43510;51.920;4.492;2023-02-18T11:32:49;67453.28;;;14.42;100.00
44144;BME280;43510;51.920;4.492;2023-02-18T11:35:24;67456.63;;;14.45;100.00
44144;BME280;43510;51.920;4.492;2023-02-18T11:37:51;67465.66;;;14.46;100.00
44144;BME280;43510;51.920;4.492;2023-02-18T11:40:23;67457.19;;;14.45;100.00
44144;BME280;43510;51.920;4.492;2023-02-18T11:42:49;67448.78;;;14.38;100.00
44144;BME280;43510;51.920;4.492;2023-02-18T11:45:29;67441.50;;;14.31;100.00
44144;BME280;43510;51.920;4.492;2023-02-18T11:48:00;67438.69;;;14.28;100.00
44144;BME280;43510;51.920;4.492;2023-02-18T11:50:30;67435.91;;;14.26;100.00
44144;BME280;43510;51.920;4.492;2023-02-18T11:52:57;67427.50;;;14.18;100.00
44144;BME280;43510;51.920;4.492;2023-02-18T11:55:26;67421.34;;;14.13;100.00
44144;BME280;43510;51.920;4.492;2023-02-18T11:57:57;67409.38;;;14.07;100.00
44144;BME280;43510;51.920;4.492;2023-02-18T12:00:35;67416.72;;;14.06;100.00
44144;BME280;43510;51.920;4.492;2023-02-18T12:03:06;67412.97;;;14.05;100.00
44144;BME280;43510;51.920;4.492;2023-02-18T12:05:33;67419.28;;;14.13;100.00
44144;BME280;43510;51.920;4.492;2023-02-18T12:08:06;67429.75;;;14.20;100.00
44144;BME280;43510;51.920;4.492;2023-02-18T12:10:43;67448.06;;;14.35;100.00
44144;BME280;43510;51.920;4.492;2023-02-18T12:13:32;67454.94;;;14.43;100.00
44144;BME280;43510;51.920;4.492;2023-02-18T12:22:05;67470.13;;;14.66;100.00
44144;BME280;43510;51.920;4.492;2023-02-18T12:27:22;67496.94;;;14.81;99.98
44144;BME280;43510;51.920;4.492;2023-02-18T12:35:56;67516.34;;;14.96;98.85
44144;BME280;43510;51.920;4.492;2023-02-18T12:44:33;67521.41;;;15.01;98.49
44144;BME280;43510;51.920;4.492;2023-02-18T12:47:05;67508.53;;;14.89;98.49
44144;BME280;43510;51.920;4.492;2023-02-18T12:55:19;67532.44;;;15.08;98.27
44144;BME280;43510;51.920;4.492;2023-02-18T12:58:13;67532.19;;;15.13;98.04
44144;BME280;43510;51.920;4.492;2023-02-18T13:00:52;67530.09;;;15.13;97.43
44144;BME280;43510;51.920;4.492;2023-02-18T13:09:19;67534.44;;;15.15;97.08
44144;BME280;43510;51.920;4.492;2023-02-18T13:12:08;67529.97;;;15.11;97.51
44144;BME280;43510;51.920;4.492;2023-02-18T13:14:52;67526.03;;;15.07;97.46
44144;BME280;43510;51.920;4.492;2023-02-18T13:17:23;67531.47;;;15.10;97.42
44144;BME280;43510;51.920;4.492;2023-02-18T13:22:39;67536.28;;;15.19;97.02
44144;BME280;43510;51.920;4.492;2023-02-18T13:25:11;67541.97;;;15.17;97.79
44144;BME280;43510;51.920;4.492;2023-02-18T13:27:42;67534.44;;;15.15;97.20
44144;BME280;43510;51.920;4.492;2023-02-18T13:30:40;67535.00;;;15.16;97.21
44144;BME280;43510;51.920;4.492;2023-02-18T13:33:18;67521.16;;;15.05;97.55
44144;BME280;43510;51.920;4.492;2023-02-18T13:39:05;67530.53;;;15.11;98.01
44144;BME280;43510;51.920;4.492;2023-02-18T13:41:37;67523.25;;;15.05;98.12
44144;BME280;43510;51.920;4.492;2023-02-18T13:47:07;67529.41;;;15.10;97.68
44144;BME280;43510;51.920;4.492;2023-02-18T13:49:36;67528.84;;;15.10;98.05
44144;BME280;43510;51.920;4.492;2023-02-18T13:52:03;67526.03;;;15.07;97.15
44144;BME280;43510;51.920;4.492;2023-02-18T13:57:06;67548.03;;;15.30;97.23
44144;BME280;43510;51.920;4.492;2023-02-18T14:10:24;67588.78;;;15.64;95.43
44144;BME280;43510;51.920;4.492;2023-02-18T14:25:51;67516.84;;;15.04;97.38
44144;BME280;43510;51.920;4.492;2023-02-18T14:31:22;67513.72;;;14.96;97.90
44144;BME280;43510;51.920;4.492;2023-02-18T14:34:12;67504.75;;;14.88;98.22
44144;BME280;43510;51.920;4.492;2023-02-18T14:37:02;67504.19;;;14.88;98.46
44144;BME280;43510;51.920;4.492;2023-02-18T14:40:18;67491.66;;;14.81;98.64
44144;BME280;43510;51.920;4.492;2023-02-18T14:45:31;67490.78;;;14.76;99.03
44144;BME280;43510;51.920;4.492;2023-02-18T14:50:45;67481.81;;;14.67;99.38
44144;BME280;43510;51.920;4.492;2023-02-18T14:53:18;67484.06;;;14.69;99.22
44144;BME280;43510;51.920;4.492;2023-02-18T14:55:49;67482.75;;;14.66;99.48
44144;BME280;43510;51.920;4.492;2023-02-18T14:58:28;67486.28;;;14.72;99.45
44144;BME280;43510;51.920;4.492;2023-02-18T15:00:57;67485.75;;;14.71;99.29
44144;BME280;43510;51.920;4.492;2023-02-18T15:03:25;67480.13;;;14.66;99.42
44144;BME280;43510;51.920;4.492;2023-02-18T15:05:51;67476.78;;;14.63;99.28
44144;BME280;43510;51.920;4.492;2023-02-18T15:11:02;67481.25;;;14.67;99.93
44144;BME280;43510;51.920;4.492;2023-02-18T15:13:34;67447.63;;;14.37;100.00
44144;BME280;43510;51.920;4.492;2023-02-18T15:16:04;67445.97;;;14.35;100.00
44144;BME280;43510;51.920;4.492;2023-02-18T15:18:42;67443.16;;;14.32;100.00
44144;BME280;43510;51.920;4.492;2023-02-18T15:21:19;67438.69;;;14.28;100.00
44144;BME280;43510;51.920;4.492;2023-02-18T15:23:45;67433.13;;;14.23;100.00
44144;BME280;43510;51.920;4.492;2023-02-18T15:26:13;67429.75;;;14.20;100.00
44144;BME280;43510;51.920;4.492;2023-02-18T15:28:54;67436.13;;;14.21;100.00
44144;BME280;43510;51.920;4.492;2023-02-18T15:31:25;67423.59;;;14.15;100.00
44144;BME280;43510;51.920;4.492;2023-02-18T15:33:51;67422.47;;;14.14;100.00
44144;BME280;43510;51.920;4.492;2023-02-18T15:36:16;67423.59;;;14.15;100.00
44144;BME280;43510;51.920;4.492;2023-02-18T15:38:42;67413.69;;;14.08;100.00
44144;BME280;43510;51.920;4.492;2023-02-18T15:41:15;67425.28;;;14.16;100.00
44144;BME280;43510;51.920;4.492;2023-02-18T15:43:53;67423.59;;;14.15;100.00
44144;BME280;43510;51.920;4.492;2023-02-18T15:46:20;67411.44;;;14.06;100.00
44144;BME280;43510;51.920;4.492;2023-02-18T15:48:48;67407.53;;;14.03;100.00
44144;BME280;43510;51.920;4.492;2023-02-18T15:51:22;67411.13;;;14.01;100.00
44144;BME280;43510;51.920;4.492;2023-02-18T15:53:51;67408.66;;;14.04;100.00
44144;BME280;43510;51.920;4.492;2023-02-18T15:56:39;67418.00;;;14.10;100.00
44144;BME280;43510;51.920;4.492;2023-02-18T15:59:15;67408.47;;;14.01;100.00
44144;BME280;43510;51.920;4.492;2023-02-18T16:01:41;67406.25;;;13.99;100.00
44144;BME280;43510;51.920;4.492;2023-02-18T16:04:07;67411.13;;;14.01;100.00
44144;BME280;43510;51.920;4.492;2023-02-18T16:06:37;67410.56;;;14.01;100.00
44144;BME280;43510;51.920;4.492;2023-02-18T16:09:12;67409.03;;;14.02;100.00
44144;BME280;43510;51.920;4.492;2023-02-18T16:11:41;67387.94;;;13.85;100.00
44144;BME280;43510;51.920;4.492;2023-02-18T16:14:27;67401.22;;;13.95;100.00
44144;BME280;43510;51.920;4.492;2023-02-18T16:20:01;67393.94;;;13.88;100.00
44144;BME280;43510;51.920;4.492;2023-02-18T16:22:41;67386.13;;;13.81;100.00
44144;BME280;43510;51.920;4.492;2023-02-18T16:30:22;67349.28;;;13.40;100.00
44144;BME280;43510;51.920;4.492;2023-02-18T16:32:48;67325.72;;;13.26;100.00
44144;BME280;43510;51.920;4.492;2023-02-18T16:35:14;67304.06;;;13.09;100.00
44144;BME280;43510;51.920;4.492;2023-02-18T16:37:41;67293.09;;;12.94;100.00
44144;BME280;43510;51.920;4.492;2023-02-18T16:42:52;67253.03;;;12.60;100.00
44144;BME280;43510;51.920;4.492;2023-02-18T16:45:20;67244.09;;;12.52;100.00
44144;BME280;43510;51.920;4.492;2023-02-18T16:47:48;67241.69;;;12.48;100.00
44144;BME280;43510;51.920;4.492;2023-02-18T16:50:19;67244.34;;;12.48;100.00
44144;BME280;43510;51.920;4.492;2023-02-18T16:52:46;67229.03;;;12.39;100.00
44144;BME280;43510;51.920;4.492;2023-02-18T16:55:23;67236.28;;;12.45;100.00
44144;BME280;43510;51.920;4.492;2023-02-18T16:57:48;67246.34;;;12.54;100.00
44144;BME280;43510;51.920;4.492;2023-02-18T17:00:15;67247.84;;;12.53;100.00
44144;BME280;43510;51.920;4.492;2023-02-18T17:02:46;67256.00;;;12.65;100.00
44144;BME280;43510;51.920;4.492;2023-02-18T17:05:22;67264.22;;;12.71;100.00
44144;BME280;43510;51.920;4.492;2023-02-18T17:07:48;67265.34;;;12.72;100.00
44144;BME280;43510;51.920;4.492;2023-02-18T17:10:13;67267.97;;;12.72;100.00
44144;BME280;43510;51.920;4.492;2023-02-18T17:12:39;67265.91;;;12.72;100.00
44144;BME280;43510;51.920;4.492;2023-02-18T17:17:47;67274.84;;;12.80;100.00
44144;BME280;43510;51.920;4.492;2023-02-18T17:20:12;67271.47;;;12.77;100.00
44144;BME280;43510;51.920;4.492;2023-02-18T17:22:39;67277.06;;;12.82;100.00
44144;BME280;43510;51.920;4.492;2023-02-18T17:25:18;67285.44;;;12.90;100.00
44144;BME280;43510;51.920;4.492;2023-02-18T17:27:45;67281.56;;;12.86;100.00
44144;BME280;43510;51.920;4.492;2023-02-18T17:30:11;67285.28;;;12.87;100.00
44144;BME280;43510;51.920;4.492;2023-02-18T17:32:37;67283.63;;;12.86;100.00
44144;BME280;43510;51.920;4.492;2023-02-18T17:35:02;67281.69;;;12.89;100.00
44144;BME280;43510;51.920;4.492;2023-02-18T17:37:28;67281.56;;;12.86;100.00
44144;BME280;43510;51.920;4.492;2023-02-18T17:39:54;67280.19;;;12.90;100.00
44144;BME280;43510;51.920;4.492;2023-02-18T17:42:20;67283.22;;;12.88;100.00
44144;BME280;43510;51.920;4.492;2023-02-18T17:44:46;67282.66;;;12.87;100.00
44144;BME280;43510;51.920;4.492;2023-02-18T17:47:11;67278.75;;;12.84;100.00
44144;BME280;43510;51.920;4.492;2023-02-18T17:49:36;67280.44;;;12.85;100.00
44144;BME280;43510;51.920;4.492;2023-02-18T17:52:02;67269.97;;;12.78;100.00
44144;BME280;43510;51.920;4.492;2023-02-18T17:54:28;67269.25;;;12.75;100.00
44144;BME280;43510;51.920;4.492;2023-02-18T17:56:53;67271.47;;;12.77;100.00
44144;BME280;43510;51.920;4.492;2023-02-18T17:59:19;67270.91;;;12.77;100.00
44144;BME280;43510;51.920;4.492;2023-02-18T18:01:46;67270.34;;;12.76;100.00
44144;BME280;43510;51.920;4.492;2023-02-18T18:04:15;67268.69;;;12.75;100.00
44144;BME280;43510;51.920;4.492;2023-02-18T18:06:41;67263.66;;;12.70;100.00
44144;BME280;43510;51.920;4.492;2023-02-18T18:09:07;67254.16;;;12.61;100.00
44144;BME280;43510;51.920;4.492;2023-02-18T18:11:33;67250.81;;;12.58;100.00
44144;BME280;43510;51.920;4.492;2023-02-18T18:13:59;67247.78;;;12.60;100.00
44144;BME280;43510;51.920;4.492;2023-02-18T18:16:24;67242.75;;;12.56;100.00
44144;BME280;43510;51.920;4.492;2023-02-18T18:18:50;67250.09;;;12.55;100.00